ポンタ・デルガダ の空港の天気 - METARとTAF

ポンタ・デルガダ空港 ( LPPD / PDL ) - ポルトガル ポンタ・デルガダ (サンミゲル島)
飛行場実況気象(Metar)
観測時間06/17 19:30 AZOST (06/17 19:30 UTC)
風向・風速北北西 5m/s
視程10km以上
天気現象
全天の4割程度の雲 雲底高度 550m
全天の8割程度の雲 雲底高度 910m
気温20℃
湿度78%
気圧1011hPa
METARLPPD 171930Z 34009KT 300V030 9999 SCT018 BKN030 20/16 Q1011
過去の天気等 Google飛行場航空写真 Wunderground天気予報

過去48時間のMETAR

飛行場予報(TAF)
発表時間: 6/17 17:00 AZOST (6/17 17:00 UTC)
予報対象時間: 17日18時 AZOST ~ 18日18時 AZOST
風向・風速北北西 7m/s
視程10km以上
全天の4割程度の雲 雲底高度 550m
17日21時 AZOST ~ 17日23時 AZOST に徐々に
風向・風速北北東 4m/s
18日0時 AZOST ~ 18日10時 AZOST に一時的に
少しの雲 雲底高度 460m
全天の8割程度の雲 雲底高度 1070m
18日6時 AZOST ~ 18日9時 AZOST に徐々に
風向・風速不定 3m/s
TAF LPPD 171700Z 1718/1818 34013KT 9999 SCT018
BECMG 1721/1723 02008KT
TEMPO 1800/1810 FEW015 BKN035
BECMG 1806/1809 VRB05KT